Aktualne dane pomiarowe

Uwaga, wersja testowa! Automatyczne pobieranie danych za pomocą narzędzi lub skryptów to umożliwiających jest zabronione.

Dane meteo z obszaru Polski uzyskane na podstawie depesz SYNOP pobieranych co godzinę z NWS. Najedź myszką na symbol przedstawiony w tabeli, aby uzyskać informacje co do jego znaczenia. Prosimy pamiętać, że to testowa wersja strony, która jeszcze nie jest ukończona. Stworzono również jest krótki FAQ dotyczący korzystania z tej podstrony Anomalie temperatury w chwili obecnej odniesione są do okresu referencyjnego 1951-2016. Okres ten będzie później zmieniony na 1981-2010. Kliknij ikonę aby pobrać plik CSV. Kliknij ikonę aby wygenerować mapę synoptyczną dla danego terminu.

Wybierz Datę:    

        

Krosno (12670)

Dane terminowe dla wybranej stacji. Kliknij datę, aby otrzymać dane z tego terminu dla wszystkich stacji.

TemperaturaZachmurzenieWiatrCiśnienieOpadyPogoda
 Data t td wb tx tn tg rh  Nt Nl Cl Cm Ch ws wd g1 g2 wx mslp ppp ch 24h 12h t ww ww w1 w2  
2019-08-08 23:00:00 15.4 13.2 13.9--- 8714.0wx-wx3wx--31014.9 975.9 0.6---------
2019-08-08 22:00:00 16.6 12.8 14.1--- 7821.0wx-wx2wx--21014.5 975.7 0.7---------
2019-08-08 21:00:00 16.1 13.5 14.3--- 8515.0wx-wx2wx--21014.5 975.6 1.0---------
2019-08-08 20:00:00 17.5 13.5 14.8--- 7718.0wx-wxwx2wx---1014.0 975.3 0.9---------
2019-08-08 19:00:00 20.0 13.5 15.8--- 6626.0wx-wx1wx--11013.4 975.0 0.7---------
2019-08-08 18:00:00 21.0 13.3 16.1 24.0 17.9- 6130.0wxwxwxwx1wx--11012.8 974.6 0.1--12------
2019-08-08 17:00:00 22.4 14.6 17.4--- 6135.0wxwxwxwx1wx--11012.4 974.4 -0.1---------
2019-08-08 16:00:00 22.7 13.3 16.8--- 5535.0wxwxwxwx2wx---1012.3 974.3 0.0---------
2019-08-08 15:00:00 23.7 13.9 17.5--- 5428.0wxwxwxwx3wx---1012.4 974.5 0.1---------
2019-08-08 14:00:00 22.8 13.7 17.0--- 5730.0wxwxwxwx3wx--31012.5 974.5 0.2---------
2019-08-08 13:00:00 22.6 14.5 17.4--- 6035.0wxwxwxwx4wx--41012.3 974.3 0.3---------
2019-08-08 12:00:00 22.8 15.0 17.7--- 6130.0wxwxwxwx4wx-1141012.4 974.4 0.6--6wx-w1--
2019-08-08 11:00:00 22.1 14.8 17.3--- 6325.0wxwxwx5wx--51012.4 974.3 1.0---------
2019-08-08 10:00:00 20.4 15.1 16.9--- 7228.0wxwxwx5wx--51012.3 974.0 1.6---------
2019-08-08 09:00:00 19.0 15.6 16.7--- 8135.0wxwxwx5wx-1151012.2 973.8 2.2---wx---
2019-08-08 08:00:00 18.6 15.8 16.6--- 8435.0wxwxwx4wx-1041011.8 973.3 2.7---------
2019-08-08 07:00:00 18.7 16.4 17.1--- 8735.0wxwxwx5wx101151010.8 972.4 2.4---------
2019-08-08 06:00:00 17.9 16.7 17.0 21.4 17.4 17 9350.0wxwxwx3wx-1531010.1 971.6 2.4 25.1 10.012wx-w1w2- 8.2
2019-08-08 05:00:00 17.7 17.0 17.2--- 9635.0wxwxwxwxwx2wx---1009.1 970.6 1.7---wx---
2019-08-08 04:00:00 17.5 16.8 17.0--- 9621.0wxwxwxwx4wx---1008.5 970.0 1.8---wx-w1w2--
2019-08-08 03:00:00 17.5 16.8 17.0--- 9613.0wxwxwx3wx-1531007.7 969.2 0.2---wx-w1--
2019-08-08 02:00:00 18.3 17.4 17.6--- 951.5wxwxwx2wx-1421007.2 968.9 -0.2---wx-w1w2--
2019-08-08 01:00:00 19.9 16.4 17.5--- 808.0wxwxwx7wx151571006.3 968.2 -1.3---wx-w1--
2019-08-08 00:00:00 20.8 17.3 18.4--- 8030.0wx-wx1wx--11007.0 969.0 -0.6- 0.06------
2019-08-07 23:00:00 20.9 17.4 18.4--- 8035.0wx-wxwx3wx--31007.1 969.1 -0.6---------
2019-08-07 22:00:00 20.2 17.5 18.3--- 8530.0wx-wx1wx--11007.6 969.5 -1.0---------
2019-08-07 21:00:00 20.3 17.0 18.0--- 8135.0wx-wx3wx--31007.7 969.6 -0.9---------
2019-08-07 20:00:00 20.2 17.5 18.3--- 8525.0wx-wxwx2wx---1007.8 969.7 -1.0---------
2019-08-07 19:00:00 21.1 17.8 18.8--- 8130.0wxwxwxwxwx3wx---1008.5 970.5 -0.8---wx---
2019-08-07 18:00:00 19.1 17.3 17.8 27.6 16.7- 8930.0wxwxwxwxwx4wx-1641008.8 970.5 -1.5- 15.012wx-w1w2--
2019-08-07 17:00:00 19.1 17.7 18.1--- 9227.0wxwxwxwxwx4wx--41009.0 970.7 -1.4---------
2019-08-07 16:00:00 18.8 17.6 17.9--- 9330.0wxwxwxwx3wx--31009.7 971.3 0.2---wx-w1--
2019-08-07 15:00:00 18.1 17.4 17.6--- 9615.0wxwxwxwx3wx-1631010.5 972.0 0.9---wx-w1w2--
2019-08-07 14:00:00 21.0 17.7 18.7--- 8120.0wxwxwx4wx9--1010.2 972.1 0.5---wx-w1w2--
2019-08-07 13:00:00 25.6 17.1 20.0--- 5920.0wxwxwxwx5wx121451008.6 971.1 -1.4---wx-w1--
2019-08-07 12:00:00 26.8 16.8 20.2--- 5420.0wxwxwxwx7wx131371008.4 971.1 -1.6- 0.06------
2019-08-07 11:00:00 27.3 17.6 20.9--- 5626.0wxwxwxwxwx5wx111151008.9 971.6 -1.5---------
2019-08-07 10:00:00 25.9 16.3 19.6--- 5625.0wxwxwxwxwx7wx121271010.0 972.5 -0.6---------
2019-08-07 09:00:00 25.1 16.6 19.5--- 5929.0wxwxwxwx6wx---1010.3 972.7 -0.5---------
2019-08-07 08:00:00 23.7 16.3 18.8--- 6330.0wxwxwxwx4wx-1041010.9 973.1 -0.2---------
2019-08-07 07:00:00 21.8 16.2 18.0--- 7135.0wxwxwxwx5wx-1151011.1 973.1 -0.3---------
2019-08-07 06:00:00 20.5 16.2 17.6 21.5 18.0 17 7630.0wxwxwxwx5wx101051011.4 973.2 -0.1 0.3 0.312----- 10.9
2019-08-07 05:00:00 19.5 16.1 17.1--- 8129.0wxwxwxwx2wx--21011.7 973.3 0.1---------
2019-08-07 04:00:00 18.2 15.5 16.3--- 8426.0wxwxwxwxwx2wx---1011.9 973.4 0.1---------
2019-08-07 03:00:00 18.4 15.4 16.3--- 8335.0wxwxwxwx4wx-741011.8 973.3 -0.1---------
2019-08-07 02:00:00 18.7 15.3 16.4--- 8135.0wxwxwxwxwx3wx--31011.7 973.2 -0.4---------
2019-08-07 01:00:00 19.3 15.9 16.9--- 8140.0wx-wxwx1wx-711011.7 973.3 -0.4---------
2019-08-07 00:00:00 18.9 15.9 16.8--- 8335.0wx-wxwx3wx-931011.8 973.4 -0.5- 0.36wx---
9.5 ms

 

Print Friendly, PDF & Email